< < Back
Terminal Aerodrome Forecast


Current Version              Previous Versions:   1  2  3  4  5  6  7  8  9  

Terminal Aerodrome Forecast

937
FTUS42 KJAX 041054 AAD
TAFJAX
TAF AMD
KJAX 041054Z 0411/0506 20003KT P6SM BKN008
     FM041400 26006KT P6SM VCSH SCT020 SCT060
     FM041700 25007KT 6SM -RA BKN030 BKN250
     FM041900 26008KT P6SM VCTS SCT030CB BKN200
     FM042300 21007KT P6SM SCT020 BKN060=



Latest METAR

726
SAUS80 KWBC 041500 RRA
MTRJAX
METAR KJAX 041456Z 24008KT 10SM BKN021 BKN090 BKN200 29/26 A3002 RMK AO2
SLP165 T02940256 51014


USA.gov is the U.S. government's official web portal to all federal, state and local government web resources and services.